createdAt,value
2018-02-17T00:02:27.165Z,35.70
2018-02-17T00:04:55.599Z,35.70
2018-02-17T00:07:23.862Z,38.92
2018-02-17T00:09:52.203Z,40.38
2018-02-17T00:12:19.807Z,43.92
2018-02-17T00:14:47.374Z,34.92
2018-02-17T00:17:14.955Z,39.60
2018-02-17T00:19:42.587Z,46.25
2018-02-17T00:22:10.165Z,49.78
2018-02-17T00:24:38.534Z,50.35
2018-02-17T00:27:06.124Z,43.83
2018-02-17T00:29:34.675Z,38.28
2018-02-17T00:32:02.278Z,45.40
2018-02-17T00:34:30.746Z,35.03
2018-02-17T00:36:58.315Z,42.97
2018-02-17T00:39:25.929Z,39.80
2018-02-17T00:41:54.230Z,35.67
2018-02-17T00:44:21.791Z,41.97
2018-02-17T00:46:49.354Z,41.05
2018-02-17T00:49:16.915Z,43.25
2018-02-17T00:51:44.480Z,40.45
2018-02-17T00:54:12.053Z,44.65
2018-02-17T00:56:39.711Z,41.08
2018-02-17T00:59:07.284Z,54.85
2018-02-17T01:01:34.908Z,47.78
2018-02-17T01:04:02.480Z,35.83
2018-02-17T01:06:31.006Z,44.85
2018-02-17T01:08:58.567Z,44.85
2018-02-17T01:11:26.136Z,40.60
2018-02-17T01:13:54.628Z,43.97
2018-02-17T01:16:22.977Z,46.58
2018-02-17T01:18:51.311Z,47.15
2018-02-17T01:21:19.679Z,47.03
2018-02-17T01:23:48.023Z,56.17
2018-02-17T01:26:15.586Z,37.92
2018-02-17T01:28:43.228Z,50.45
2018-02-17T01:31:10.795Z,45.28
2018-02-17T01:33:39.144Z,66.75
2018-02-17T01:36:06.709Z,45.58
2018-02-17T01:38:34.311Z,48.22
2018-02-17T01:41:02.803Z,56.88
2018-02-17T01:43:30.378Z,43.42
2018-02-17T01:45:58.868Z,38.95
2018-02-17T01:48:26.479Z,39.72
2018-02-17T01:50:54.850Z,37.53
2018-02-17T01:53:23.214Z,47.17
2018-02-17T01:55:50.836Z,54.58
2018-02-17T01:58:18.394Z,46.40
2018-02-17T02:00:46.857Z,47.13
2018-02-17T02:03:14.414Z,51.42
2018-02-17T02:05:42.784Z,53.40
2018-02-17T02:08:11.118Z,53.45
2018-02-17T02:10:39.331Z,43.30
2018-02-17T02:13:06.890Z,46.90
2018-02-17T02:15:35.286Z,41.63
2018-02-17T02:18:03.654Z,47.83
2018-02-17T02:20:31.218Z,46.05
2018-02-17T02:22:59.708Z,50.92
2018-02-17T02:25:28.038Z,40.43
2018-02-17T02:27:55.633Z,41.97
2018-02-17T02:30:23.195Z,75.93
2018-02-17T02:32:50.794Z,49.97
2018-02-17T02:35:19.256Z,44.08
2018-02-17T02:37:46.863Z,48.53
2018-02-17T02:40:14.424Z,41.17
2018-02-17T02:42:42.911Z,39.63
2018-02-17T02:45:10.478Z,51.13
2018-02-17T02:47:38.878Z,41.70
2018-02-17T02:50:06.479Z,49.70
2018-02-17T02:52:34.127Z,45.15
2018-02-17T02:55:01.687Z,42.13
2018-02-17T02:57:29.256Z,45.30
2018-02-17T02:59:56.855Z,41.17
2018-02-17T03:02:25.263Z,49.97
2018-02-17T03:04:53.674Z,40.25
2018-02-17T03:07:21.240Z,43.15
2018-02-17T03:09:48.837Z,50.97
2018-02-17T03:12:17.205Z,51.07
2018-02-17T03:14:44.765Z,40.28
2018-02-17T03:17:13.168Z,36.33
2018-02-17T03:19:40.731Z,55.90
2018-02-17T03:22:09.251Z,40.80
2018-02-17T03:24:37.466Z,44.20
2018-02-17T03:27:05.738Z,46.55
2018-02-17T03:29:33.286Z,47.90
2018-02-17T03:32:00.834Z,42.90
2018-02-17T03:34:28.382Z,38.10
2018-02-17T03:36:55.934Z,40.47
2018-02-17T03:39:23.484Z,45.17
2018-02-17T03:41:51.031Z,43.83
2018-02-17T03:44:19.542Z,46.33
2018-02-17T03:46:47.096Z,43.60
2018-02-17T03:49:14.656Z,57.58
2018-02-17T03:51:42.218Z,43.22
2018-02-17T03:54:09.779Z,40.10
2018-02-17T03:56:37.354Z,52.40
2018-02-17T03:59:04.927Z,44.72
2018-02-17T04:01:32.483Z,45.83
2018-02-17T04:04:00.044Z,43.83
2018-02-17T04:06:28.370Z,48.13
2018-02-17T04:08:56.199Z,49.73
2018-02-17T04:11:24.569Z,39.47
2018-02-17T04:13:52.117Z,47.90
2018-02-17T04:16:19.672Z,41.23
2018-02-17T04:18:47.258Z,45.53
2018-02-17T04:21:14.807Z,46.73
2018-02-17T04:23:42.357Z,39.40
2018-02-17T04:26:09.920Z,49.47
2018-02-17T04:28:37.520Z,43.00
2018-02-17T04:31:05.079Z,49.93
2018-02-17T04:33:32.641Z,52.90
2018-02-17T04:36:01.101Z,45.37
2018-02-17T04:38:28.666Z,40.67
2018-02-17T04:40:57.922Z,43.23
2018-02-17T04:43:31.015Z,42.90
2018-02-17T04:46:02.357Z,48.78
2018-02-17T04:51:40.267Z,44.25
2018-02-17T04:57:17.388Z,41.55
2018-02-17T05:00:03.875Z,36.80
2018-02-17T05:02:37.969Z,48.00
2018-02-17T05:05:11.255Z,41.00
2018-02-17T05:07:40.600Z,42.45
2018-02-17T05:10:08.876Z,42.73
2018-02-17T05:12:36.437Z,42.60
2018-02-17T05:15:09.453Z,40.58
2018-02-17T05:17:41.433Z,53.47
2018-02-17T05:23:10.937Z,44.90
2018-02-17T05:28:40.785Z,39.60
2018-02-17T05:31:11.649Z,46.30
2018-02-17T05:33:55.896Z,43.20
2018-02-17T05:39:30.518Z,55.50
2018-02-17T05:45:05.735Z,44.00
2018-02-17T05:47:33.284Z,53.93
2018-02-17T05:50:16.610Z,36.83
2018-02-17T05:52:44.163Z,48.43
2018-02-17T05:55:11.781Z,44.95
2018-02-17T05:57:39.344Z,40.28
2018-02-17T06:00:06.903Z,52.75
2018-02-17T06:02:34.457Z,46.45
2018-02-17T06:05:02.742Z,44.42
2018-02-17T06:07:30.297Z,44.15
2018-02-17T06:09:59.918Z,60.30
2018-02-17T06:12:27.466Z,64.07
2018-02-17T06:14:55.867Z,45.00
2018-02-17T06:17:23.429Z,45.00
2018-02-17T06:19:51.054Z,45.17
2018-02-17T06:22:19.348Z,42.63
2018-02-17T06:24:46.912Z,44.10
2018-02-17T06:27:14.503Z,42.40
2018-02-17T06:29:42.046Z,59.00
2018-02-17T06:32:09.655Z,59.25
2018-02-17T06:34:38.024Z,56.20
2018-02-17T06:37:06.490Z,51.47
2018-02-17T06:39:34.042Z,52.00
2018-02-17T06:42:02.526Z,43.20
2018-02-17T06:44:30.868Z,52.57
2018-02-17T06:46:59.228Z,51.10
2018-02-17T06:49:26.792Z,48.95
2018-02-17T06:51:54.354Z,53.95
2018-02-17T06:54:22.769Z,45.83
2018-02-17T06:56:51.128Z,48.08
2018-02-17T06:59:18.678Z,56.33
2018-02-17T07:01:46.244Z,60.63
2018-02-17T07:04:13.803Z,63.15
2018-02-17T07:06:41.369Z,49.88
2018-02-17T07:09:08.917Z,52.08
2018-02-17T07:11:37.283Z,66.80
2018-02-17T07:14:05.646Z,48.90
2018-02-17T07:16:33.206Z,52.17
2018-02-17T07:19:01.522Z,54.80
2018-02-17T07:21:29.077Z,46.83
2018-02-17T07:23:56.666Z,53.15
2018-02-17T07:26:24.265Z,42.58
2018-02-17T07:28:52.546Z,54.27
2018-02-17T07:31:20.113Z,47.00
2018-02-17T07:33:48.649Z,49.60
2018-02-17T07:36:16.210Z,52.47
2018-02-17T07:38:43.808Z,38.93
2018-02-17T07:41:11.386Z,40.40
2018-02-17T07:43:39.840Z,54.17
2018-02-17T07:46:07.390Z,41.90
2018-02-17T07:48:35.920Z,59.07
2018-02-17T07:51:04.447Z,47.40
2018-02-17T07:53:32.695Z,45.53
2018-02-17T07:56:00.309Z,43.03
2018-02-17T07:58:27.857Z,47.00
2018-02-17T08:00:55.411Z,52.80
2018-02-17T08:03:23.868Z,53.33
2018-02-17T08:05:51.417Z,39.10
2018-02-17T08:08:19.936Z,48.20
2018-02-17T08:10:47.526Z,57.60
2018-02-17T08:13:15.088Z,52.47
2018-02-17T08:15:42.678Z,46.13
2018-02-17T08:18:10.226Z,47.70
2018-02-17T08:20:37.770Z,46.60
2018-02-17T08:23:05.378Z,44.10
2018-02-17T08:25:32.929Z,44.37
2018-02-17T08:28:00.483Z,49.50
2018-02-17T08:30:28.036Z,50.53
2018-02-17T08:32:55.591Z,49.07
2018-02-17T08:35:23.142Z,43.97
2018-02-17T08:37:50.696Z,57.43
2018-02-17T08:40:18.266Z,53.30
2018-02-17T08:42:45.815Z,44.53
2018-02-17T08:45:13.370Z,45.17
2018-02-17T08:47:40.921Z,47.60
2018-02-17T08:50:08.559Z,46.97
2018-02-17T08:52:36.146Z,46.20
2018-02-17T08:55:03.695Z,39.53
2018-02-17T08:57:31.245Z,42.37
2018-02-17T08:59:59.244Z,50.10
2018-02-17T09:02:26.866Z,49.47
2018-02-17T09:04:54.431Z,45.20
2018-02-17T09:07:22.774Z,47.43
2018-02-17T09:09:51.163Z,49.77
2018-02-17T09:12:19.393Z,44.73
2018-02-17T09:14:46.990Z,47.30
2018-02-17T09:17:14.546Z,45.60
2018-02-17T09:19:42.099Z,52.73
2018-02-17T09:22:09.646Z,38.30
2018-02-17T09:24:37.199Z,44.90
2018-02-17T09:27:05.591Z,43.77
2018-02-17T09:29:34.026Z,44.70
2018-02-17T09:32:01.573Z,52.07
2018-02-17T09:34:29.934Z,51.33
2018-02-17T09:36:57.483Z,56.47
2018-02-17T09:39:25.031Z,45.20
2018-02-17T09:41:52.611Z,43.53
2018-02-17T09:44:21.105Z,41.17
2018-02-17T09:46:48.654Z,46.70
2018-02-17T09:49:16.208Z,49.40
2018-02-17T09:51:43.762Z,42.10
2018-02-17T09:54:11.310Z,47.67
2018-02-17T09:56:38.859Z,48.03
2018-02-17T09:59:06.447Z,51.37
2018-02-17T10:01:33.999Z,49.47
2018-02-17T10:04:01.592Z,56.87
2018-02-17T10:06:29.155Z,34.73
2018-02-17T10:08:57.715Z,42.50
2018-02-17T10:11:26.034Z,41.57
2018-02-17T10:13:53.624Z,44.20
2018-02-17T10:16:21.182Z,38.70
2018-02-17T10:18:48.772Z,33.90
2018-02-17T10:21:16.323Z,43.20
2018-02-17T10:23:44.656Z,42.60
2018-02-17T10:26:12.703Z,44.47
2018-02-17T10:28:40.270Z,42.27
2018-02-17T10:31:08.655Z,41.17
2018-02-17T10:33:36.930Z,39.63
2018-02-17T10:36:05.304Z,40.47
2018-02-17T10:38:32.864Z,33.43
2018-02-17T10:41:00.455Z,39.33
2018-02-17T10:43:28.003Z,40.37
2018-02-17T10:45:56.419Z,55.63
2018-02-17T10:48:24.759Z,44.83
2018-02-17T10:50:53.106Z,44.10
2018-02-17T10:53:20.660Z,42.30
2018-02-17T10:55:49.007Z,42.17
2018-02-17T10:58:16.573Z,113.40
2018-02-17T11:00:44.942Z,61.30
2018-02-17T11:03:13.302Z,67.33
2018-02-17T11:05:41.647Z,77.80
2018-02-17T11:08:09.202Z,84.10
2018-02-17T11:10:36.791Z,74.20
2018-02-17T11:13:05.237Z,41.07
2018-02-17T11:15:33.574Z,155.47
2018-02-17T11:18:01.959Z,46.50
2018-02-17T11:20:30.412Z,45.70
2018-02-17T11:22:58.013Z,55.27
2018-02-17T11:25:26.459Z,88.30
2018-02-17T11:27:54.055Z,50.33
2018-02-17T11:30:21.642Z,54.23
2018-02-17T11:32:50.019Z,51.73
2018-02-17T11:35:18.508Z,64.43
2018-02-17T11:37:46.890Z,51.73
2018-02-17T11:40:15.226Z,75.07
2018-02-17T11:42:43.573Z,42.17
2018-02-17T11:45:11.162Z,69.63
2018-02-17T11:47:38.711Z,89.43
2018-02-17T11:50:06.308Z,66.77
2018-02-17T11:52:33.863Z,75.30
2018-02-17T11:55:01.824Z,50.83
2018-02-17T11:57:29.521Z,46.53
2018-02-17T11:59:57.066Z,46.93
2018-02-17T12:02:24.618Z,45.20
2018-02-17T12:04:52.170Z,39.90
2018-02-17T12:07:19.722Z,44.37
2018-02-17T12:09:48.138Z,50.03
2018-02-17T12:12:15.690Z,42.13
2018-02-17T12:14:43.238Z,43.47
2018-02-17T12:17:10.794Z,40.00
2018-02-17T12:19:38.340Z,35.50
2018-02-17T12:22:05.887Z,43.20
2018-02-17T12:24:33.436Z,57.57
2018-02-17T12:27:01.500Z,38.10
2018-02-17T12:29:29.047Z,40.87
2018-02-17T12:31:56.647Z,63.37
2018-02-17T12:34:24.197Z,31.90
2018-02-17T12:36:51.747Z,35.70
2018-02-17T12:39:20.239Z,55.00
2018-02-17T12:41:47.803Z,38.33
2018-02-17T12:44:15.388Z,48.00
2018-02-17T12:46:42.931Z,41.77
2018-02-17T12:49:10.520Z,37.90
2018-02-17T12:51:38.898Z,33.93
2018-02-17T12:54:06.479Z,22.30
2018-02-17T12:56:37.459Z,20.77
2018-02-17T12:59:05.010Z,37.93
2018-02-17T13:01:32.562Z,32.80
2018-02-17T13:04:00.887Z,24.53
2018-02-17T13:06:28.446Z,25.40
2018-02-17T13:08:55.993Z,22.50
2018-02-17T13:11:23.583Z,29.50
2018-02-17T13:13:51.911Z,23.97
2018-02-17T13:16:19.495Z,27.90
2018-02-17T13:18:47.964Z,25.00
2018-02-17T13:21:16.282Z,34.60
2018-02-17T13:23:44.634Z,21.37
2018-02-17T13:26:13.006Z,29.60
2018-02-17T13:28:42.330Z,26.13
2018-02-17T13:31:10.817Z,34.90
2018-02-17T13:33:38.364Z,31.00
2018-02-17T13:36:06.874Z,28.60
2018-02-17T13:38:35.274Z,47.40
2018-02-17T13:41:02.817Z,23.40
2018-02-17T13:43:34.142Z,26.10
2018-02-17T13:46:01.890Z,18.73
2018-02-17T13:48:30.245Z,38.00
2018-02-17T13:50:58.584Z,36.33
2018-02-17T13:53:26.950Z,23.47
2018-02-17T13:55:54.494Z,21.37
2018-02-17T13:58:23.012Z,26.17
2018-02-17T14:00:51.341Z,28.40
2018-02-17T14:03:18.930Z,23.87
2018-02-17T14:05:47.295Z,20.43
2018-02-17T14:08:14.891Z,26.97
2018-02-17T14:10:42.451Z,20.92
2018-02-17T14:13:09.999Z,24.93
2018-02-17T14:15:38.490Z,24.20
2018-02-17T14:18:06.383Z,24.67
2018-02-17T14:20:34.181Z,19.00
2018-02-17T14:23:01.742Z,19.77
2018-02-17T14:25:29.334Z,24.33
2018-02-17T14:27:56.887Z,24.70
2018-02-17T14:30:25.171Z,24.00
2018-02-17T14:32:52.781Z,23.50
2018-02-17T14:35:20.343Z,24.20
2018-02-17T14:37:47.894Z,25.90
2018-02-17T14:40:16.338Z,18.17
2018-02-17T14:42:44.797Z,28.23
2018-02-17T14:45:13.049Z,19.93
2018-02-17T14:47:41.414Z,21.17
2018-02-17T14:50:08.960Z,17.97
2018-02-17T14:52:37.308Z,16.70
2018-02-17T14:55:04.858Z,27.77
2018-02-17T14:57:32.447Z,22.07
2018-02-17T14:59:59.999Z,21.03
2018-02-17T15:02:28.478Z,22.37
2018-02-17T15:04:56.912Z,20.97
2018-02-17T15:07:25.230Z,16.40
2018-02-17T15:09:53.583Z,14.70
2018-02-17T15:12:21.148Z,20.53
2018-02-17T15:14:48.698Z,12.80
2018-02-17T15:17:16.927Z,12.53
2018-02-17T15:19:44.478Z,19.80
2018-02-17T15:22:12.253Z,13.60
2018-02-17T15:24:39.837Z,21.97
2018-02-17T15:27:07.393Z,25.83
2018-02-17T15:29:34.947Z,23.30
2018-02-17T15:32:05.468Z,25.43
2018-02-17T15:34:33.117Z,20.63
2018-02-17T15:37:00.667Z,20.13
2018-02-17T15:39:29.062Z,17.87
2018-02-17T15:41:56.607Z,28.63
2018-02-17T15:44:24.954Z,20.77
2018-02-17T15:46:52.499Z,24.00
2018-02-17T15:49:20.783Z,19.50
2018-02-17T15:51:48.339Z,29.43
2018-02-17T15:54:15.886Z,24.93
2018-02-17T15:56:43.435Z,24.87
2018-02-17T15:59:10.991Z,20.50
2018-02-17T16:01:38.546Z,24.40
2018-02-17T16:04:07.034Z,23.00
2018-02-17T16:06:34.592Z,25.67
2018-02-17T16:09:03.041Z,22.03
2018-02-17T16:11:30.594Z,17.77
2018-02-17T16:13:58.149Z,21.60
2018-02-17T16:16:25.710Z,16.20
2018-02-17T16:18:53.264Z,15.13
2018-02-17T16:21:21.792Z,20.00
2018-02-17T16:23:49.335Z,22.80
2018-02-17T16:26:16.877Z,18.77
2018-02-17T16:28:44.422Z,23.10
2018-02-17T16:31:11.966Z,24.33
2018-02-17T16:33:39.516Z,22.10
2018-02-17T16:36:07.129Z,19.50
2018-02-17T16:38:34.728Z,23.43
2018-02-17T16:41:02.335Z,26.77
2018-02-17T16:43:29.904Z,29.60
2018-02-17T16:45:57.496Z,29.70
2018-02-17T16:48:25.163Z,30.20
2018-02-17T16:50:52.720Z,24.50
2018-02-17T16:53:20.383Z,28.93
2018-02-17T16:55:47.936Z,37.93
2018-02-17T16:58:16.440Z,23.00
2018-02-17T17:00:43.994Z,29.70
2018-02-17T17:03:11.551Z,23.60
2018-02-17T17:05:39.112Z,36.47
2018-02-17T17:08:07.560Z,29.17
2018-02-17T17:10:36.071Z,26.10
2018-02-17T17:13:04.438Z,26.90
2018-02-17T17:15:32.880Z,25.13
2018-02-17T17:18:00.433Z,43.30
2018-02-17T17:20:28.012Z,21.00
2018-02-17T17:22:56.348Z,19.70
2018-02-17T17:25:23.939Z,29.67
2018-02-17T17:27:51.567Z,27.37
2018-02-17T17:30:19.963Z,24.93
2018-02-17T17:32:47.574Z,34.80
2018-02-17T17:35:15.163Z,26.30
2018-02-17T17:37:43.618Z,24.80
2018-02-17T17:40:12.023Z,23.67
2018-02-17T17:42:40.280Z,20.17
2018-02-17T17:45:08.105Z,23.80
2018-02-17T17:47:36.491Z,22.03
2018-02-17T17:50:05.012Z,24.47
2018-02-17T17:52:32.608Z,29.37
2018-02-17T17:55:00.254Z,34.03
2018-02-17T17:57:28.572Z,34.17
2018-02-17T17:59:56.823Z,22.80
2018-02-17T18:02:24.943Z,22.67
2018-02-17T18:04:52.487Z,19.87
2018-02-17T18:07:20.035Z,22.50
2018-02-17T18:09:47.664Z,27.47
2018-02-17T18:12:15.337Z,23.17
2018-02-17T18:14:42.887Z,26.10
2018-02-17T18:17:11.315Z,39.10
2018-02-17T18:19:39.651Z,53.10
2018-02-17T18:22:07.255Z,41.63
2018-02-17T18:24:34.869Z,47.43
2018-02-17T18:27:03.194Z,40.70
2018-02-17T18:29:31.576Z,50.60
2018-02-17T18:31:59.165Z,44.23
2018-02-17T18:34:26.722Z,50.33
2018-02-17T18:36:54.317Z,31.70
2018-02-17T18:39:21.885Z,41.33
2018-02-17T18:41:49.445Z,38.87
2018-02-17T18:44:17.046Z,32.00
2018-02-17T18:46:44.602Z,41.57
2018-02-17T18:49:12.177Z,32.53
2018-02-17T18:51:39.763Z,32.90
2018-02-17T18:54:07.314Z,37.83
2018-02-17T18:56:34.903Z,33.67
2018-02-17T18:59:02.490Z,33.00
2018-02-17T19:01:30.855Z,26.87
2018-02-17T19:03:58.413Z,23.70
2018-02-17T19:06:26.010Z,53.33
2018-02-17T19:08:53.568Z,30.30
2018-02-17T19:11:21.172Z,34.73
2018-02-17T19:13:48.724Z,25.27
2018-02-17T19:16:16.310Z,31.93
2018-02-17T19:18:43.894Z,47.47
2018-02-17T19:21:11.455Z,45.73
2018-02-17T19:23:39.059Z,39.27
2018-02-17T19:26:06.610Z,36.13
2018-02-17T19:28:34.164Z,42.90
2018-02-17T19:31:01.747Z,42.40
2018-02-17T19:33:29.343Z,33.10
2018-02-17T19:35:56.894Z,41.63
2018-02-17T19:38:24.493Z,40.00
2018-02-17T19:40:52.046Z,29.73
2018-02-17T19:43:19.650Z,36.37
2018-02-17T19:45:47.205Z,30.70
2018-02-17T19:48:26.652Z,37.57
2018-02-17T19:50:54.458Z,29.67
2018-02-17T19:53:22.016Z,34.80
2018-02-17T19:56:00.350Z,41.83
2018-02-17T19:58:27.970Z,50.60
2018-02-17T20:00:56.359Z,45.43
2018-02-17T20:03:43.315Z,55.00
2018-02-17T20:06:10.862Z,57.83
2018-02-17T20:08:38.423Z,38.07
2018-02-17T20:11:05.977Z,38.33
2018-02-17T20:13:33.536Z,41.40
2018-02-17T20:16:01.085Z,62.13
2018-02-17T20:18:28.644Z,44.20
2018-02-17T20:20:56.296Z,59.13
2018-02-17T20:23:23.908Z,61.93
2018-02-17T20:25:52.232Z,50.07
2018-02-17T20:28:20.594Z,56.30
2018-02-17T20:30:49.051Z,42.13
2018-02-17T20:33:16.608Z,38.30
2018-02-17T20:35:44.163Z,46.63
2018-02-17T20:38:11.724Z,51.73
2018-02-17T20:40:39.311Z,41.77
2018-02-17T20:43:06.867Z,37.27
2018-02-17T20:45:34.420Z,52.30
2018-02-17T20:48:01.980Z,34.53
2018-02-17T20:50:29.580Z,38.33
2018-02-17T20:52:57.239Z,51.17
2018-02-17T20:55:24.795Z,41.00
2018-02-17T20:57:52.343Z,49.90
2018-02-17T21:00:20.798Z,48.07
2018-02-17T21:02:48.408Z,45.00
2018-02-17T21:05:15.927Z,43.60
2018-02-17T21:07:43.557Z,40.57
2018-02-17T21:10:11.090Z,32.27
2018-02-17T21:12:39.494Z,33.83
2018-02-17T21:15:07.847Z,47.00
2018-02-17T21:17:35.464Z,43.60
2018-02-17T21:20:03.019Z,34.63
2018-02-17T21:22:30.591Z,40.70
2018-02-17T21:24:58.160Z,36.40
2018-02-17T21:27:25.807Z,32.30
2018-02-17T21:29:54.167Z,29.97
2018-02-17T21:32:21.723Z,34.70
2018-02-17T21:34:50.126Z,23.30
2018-02-17T21:37:17.679Z,34.90
2018-02-17T21:39:45.267Z,28.83
2018-02-17T21:42:12.921Z,28.40
2018-02-17T21:44:41.300Z,39.80
2018-02-17T21:47:09.623Z,41.27
2018-02-17T21:49:37.217Z,30.93
2018-02-17T21:52:04.771Z,29.20
2018-02-17T21:54:32.362Z,34.17
2018-02-17T21:57:00.740Z,37.53
2018-02-17T21:59:29.063Z,31.97
2018-02-17T22:01:56.656Z,30.83
2018-02-17T22:04:25.027Z,39.10
2018-02-17T22:06:53.391Z,29.77
2018-02-17T22:09:20.999Z,29.27
2018-02-17T22:11:49.215Z,27.33
2018-02-17T22:14:16.768Z,26.73
2018-02-17T22:16:45.141Z,42.83
2018-02-17T22:19:13.403Z,27.97
2018-02-17T22:21:40.972Z,25.57
2018-02-17T22:24:09.355Z,30.70
2018-02-17T22:26:36.908Z,31.70
2018-02-17T22:29:04.468Z,27.77
2018-02-17T22:31:32.935Z,25.60
2018-02-17T22:34:01.400Z,30.40
2018-02-17T22:36:28.963Z,37.43
2018-02-17T22:38:56.520Z,31.87
2018-02-17T22:41:24.931Z,30.97
2018-02-17T22:43:53.316Z,26.13
2018-02-17T22:46:20.916Z,36.10
2018-02-17T22:48:48.473Z,39.77
2018-02-17T22:51:16.094Z,36.83
2018-02-17T22:53:43.644Z,39.93
2018-02-17T22:56:11.232Z,29.47
2018-02-17T22:58:38.784Z,30.57
2018-02-17T23:01:06.422Z,36.20
2018-02-17T23:03:34.266Z,40.20
2018-02-17T23:06:01.858Z,44.20
2018-02-17T23:08:29.419Z,40.60
2018-02-17T23:10:57.928Z,38.70
2018-02-17T23:13:25.482Z,37.10
2018-02-17T23:15:53.042Z,37.30
2018-02-17T23:18:21.467Z,36.37
2018-02-17T23:20:49.025Z,33.03
2018-02-17T23:23:16.587Z,36.40
2018-02-17T23:25:45.093Z,57.27
2018-02-17T23:28:13.466Z,32.63
2018-02-17T23:30:41.964Z,30.63
2018-02-17T23:33:09.530Z,34.57
2018-02-17T23:35:37.122Z,37.97
2018-02-17T23:38:04.666Z,31.90
2018-02-17T23:40:32.222Z,27.37
2018-02-17T23:42:59.775Z,23.73
2018-02-17T23:45:27.330Z,25.90
2018-02-17T23:47:54.910Z,30.53
2018-02-17T23:50:22.463Z,35.03
2018-02-17T23:52:50.062Z,25.33
2018-02-17T23:55:17.619Z,25.50
2018-02-17T23:57:45.484Z,23.83
